createdAt,value
2023-02-24T00:01:27.782Z,11.30
2023-02-24T00:03:54.216Z,9.98
2023-02-24T00:06:20.748Z,10.16
2023-02-24T00:08:48.716Z,10.18
2023-02-24T00:11:15.152Z,9.97
2023-02-24T00:13:41.570Z,9.53
2023-02-24T00:16:08.206Z,9.04
2023-02-24T00:18:34.622Z,9.13
2023-02-24T00:21:01.260Z,8.74
2023-02-24T00:23:27.709Z,8.57
2023-02-24T00:25:54.091Z,8.06
2023-02-24T00:28:20.507Z,8.05
2023-02-24T00:30:46.946Z,7.54
2023-02-24T00:33:13.349Z,8.38
2023-02-24T00:35:39.741Z,9.59
2023-02-24T00:38:06.100Z,10.80
2023-02-24T00:40:32.465Z,11.21
2023-02-24T00:42:58.885Z,11.48
2023-02-24T00:45:25.238Z,9.72
2023-02-24T00:47:51.696Z,9.62
2023-02-24T00:50:18.109Z,9.77
2023-02-24T00:52:44.532Z,10.10
2023-02-24T00:55:13.227Z,12.67
2023-02-24T00:57:39.715Z,12.14
2023-02-24T01:00:06.160Z,11.40
2023-02-24T01:02:32.635Z,9.35
2023-02-24T01:04:59.124Z,9.35
2023-02-24T01:07:25.502Z,8.82
2023-02-24T01:09:51.918Z,8.61
2023-02-24T01:12:18.465Z,9.63
2023-02-24T01:14:44.955Z,10.98
2023-02-24T01:17:12.731Z,10.87
2023-02-24T01:19:39.163Z,9.07
2023-02-24T01:22:05.601Z,8.96
2023-02-24T01:24:35.019Z,9.07
2023-02-24T01:27:01.465Z,8.21
2023-02-24T01:29:27.921Z,6.63
2023-02-24T01:31:54.445Z,7.07
2023-02-24T01:34:20.958Z,6.85
2023-02-24T01:36:47.373Z,7.16
2023-02-24T01:39:16.591Z,6.94
2023-02-24T01:41:43.041Z,6.76
2023-02-24T01:44:09.430Z,8.21
2023-02-24T01:46:35.836Z,8.73
2023-02-24T01:49:04.442Z,8.34
2023-02-24T01:51:33.535Z,7.39
2023-02-24T01:54:00.051Z,8.58
2023-02-24T01:56:26.499Z,8.12
2023-02-24T01:58:55.799Z,8.75
2023-02-24T02:01:22.530Z,8.67
2023-02-24T02:03:49.143Z,8.83
2023-02-24T02:06:15.589Z,7.51
2023-02-24T02:08:42.163Z,6.74
2023-02-24T02:11:08.514Z,6.35
2023-02-24T02:13:34.882Z,7.14
2023-02-24T02:16:02.610Z,7.87
2023-02-24T02:18:29.043Z,7.35
2023-02-24T02:20:55.482Z,6.73
2023-02-24T02:23:21.857Z,7.03
2023-02-24T02:25:50.320Z,8.35
2023-02-24T02:28:19.185Z,8.72
2023-02-24T02:30:45.807Z,8.65
2023-02-24T02:33:12.284Z,8.89
2023-02-24T02:35:38.778Z,9.70
2023-02-24T02:38:05.306Z,8.57
2023-02-24T02:40:31.677Z,8.94
2023-02-24T02:42:58.190Z,9.08
2023-02-24T02:45:24.627Z,10.86
2023-02-24T02:47:51.027Z,9.97
2023-02-24T02:50:20.204Z,9.75
2023-02-24T02:52:46.614Z,9.43
2023-02-24T02:55:12.974Z,9.80
2023-02-24T02:57:39.427Z,9.50
2023-02-24T03:00:05.898Z,9.53
2023-02-24T03:02:32.307Z,8.65
2023-02-24T03:04:58.795Z,9.18
2023-02-24T03:07:25.165Z,9.18
2023-02-24T03:09:51.518Z,9.46
2023-02-24T03:12:17.868Z,9.55
2023-02-24T03:14:45.010Z,9.10
2023-02-24T03:17:11.456Z,7.81
2023-02-24T03:19:37.879Z,9.50
2023-02-24T03:22:04.344Z,10.25
2023-02-24T03:24:31.062Z,12.99
2023-02-24T03:26:57.448Z,14.11
2023-02-24T03:29:24.133Z,14.83
2023-02-24T03:31:50.717Z,15.79
2023-02-24T03:34:17.191Z,15.86
2023-02-24T03:36:43.627Z,15.70
2023-02-24T03:39:10.046Z,14.86
2023-02-24T03:41:36.435Z,15.13
2023-02-24T03:44:02.868Z,14.49
2023-02-24T03:46:29.321Z,12.40
2023-02-24T03:48:55.796Z,9.99
2023-02-24T03:51:22.404Z,11.40
2023-02-24T03:53:48.908Z,13.82
2023-02-24T03:56:15.340Z,13.43
2023-02-24T03:58:41.745Z,12.96
2023-02-24T04:01:08.233Z,11.76
2023-02-24T04:03:34.605Z,10.77
2023-02-24T04:06:01.048Z,10.28
2023-02-24T04:08:27.419Z,8.79
2023-02-24T04:10:53.810Z,8.12
2023-02-24T04:13:20.332Z,7.85
2023-02-24T04:15:46.831Z,8.32
2023-02-24T04:18:13.392Z,9.59
2023-02-24T04:20:39.914Z,9.60
2023-02-24T04:23:06.312Z,9.59
2023-02-24T04:25:32.711Z,10.56
2023-02-24T04:27:59.134Z,12.65
2023-02-24T04:30:25.508Z,13.32
2023-02-24T04:32:51.945Z,15.78
2023-02-24T04:35:18.427Z,14.07
2023-02-24T04:37:44.843Z,14.24
2023-02-24T04:40:11.522Z,13.44
2023-02-24T04:42:38.050Z,13.51
2023-02-24T04:45:04.472Z,12.74
2023-02-24T04:47:30.832Z,12.85
2023-02-24T04:49:57.237Z,13.55
2023-02-24T04:52:23.587Z,14.80
2023-02-24T04:54:50.058Z,17.42
2023-02-24T04:57:16.472Z,18.64
2023-02-24T04:59:42.864Z,16.46
2023-02-24T05:02:09.303Z,15.85
2023-02-24T05:04:35.881Z,19.06
2023-02-24T05:07:02.682Z,18.57
2023-02-24T05:09:29.081Z,17.91
2023-02-24T05:11:56.589Z,17.89
2023-02-24T05:14:23.082Z,18.01
2023-02-24T05:16:49.559Z,17.50
2023-02-24T05:19:16.008Z,15.88
2023-02-24T05:21:42.414Z,14.69
2023-02-24T05:24:08.848Z,12.10
2023-02-24T05:26:35.291Z,12.15
2023-02-24T05:29:01.741Z,13.48
2023-02-24T05:31:28.287Z,13.29
2023-02-24T05:33:54.699Z,13.27
2023-02-24T05:36:21.037Z,13.12
2023-02-24T05:38:47.429Z,12.56
2023-02-24T05:41:13.859Z,13.62
2023-02-24T05:43:40.281Z,14.25
2023-02-24T05:46:06.809Z,14.16
2023-02-24T05:48:33.280Z,14.42
2023-02-24T05:50:59.708Z,14.75
2023-02-24T05:53:26.162Z,15.91
2023-02-24T05:55:52.589Z,15.66
2023-02-24T05:58:19.011Z,15.97
2023-02-24T06:00:47.667Z,15.74
2023-02-24T06:03:16.428Z,14.15
2023-02-24T06:05:43.103Z,12.75
2023-02-24T06:08:09.588Z,11.65
2023-02-24T06:10:36.027Z,11.79
2023-02-24T06:13:02.405Z,13.00
2023-02-24T06:15:28.834Z,14.17
2023-02-24T06:17:55.231Z,13.21
2023-02-24T06:20:21.753Z,13.85
2023-02-24T06:22:48.115Z,10.86
2023-02-24T06:25:14.440Z,9.45
2023-02-24T06:27:40.769Z,9.63
2023-02-24T06:30:07.217Z,10.27
2023-02-24T06:32:33.663Z,11.14
2023-02-24T06:35:00.106Z,11.36
2023-02-24T06:37:26.486Z,10.78
2023-02-24T06:39:52.899Z,10.12
2023-02-24T06:42:19.277Z,9.90
2023-02-24T06:44:45.619Z,9.97
2023-02-24T06:47:14.235Z,8.90
2023-02-24T06:49:40.956Z,10.12
2023-02-24T06:52:07.295Z,10.47
2023-02-24T06:54:33.720Z,9.80
2023-02-24T06:57:00.056Z,9.53
2023-02-24T06:59:26.488Z,12.74
2023-02-24T07:01:52.859Z,10.92
2023-02-24T07:04:19.263Z,9.46
2023-02-24T07:06:45.618Z,10.32
2023-02-24T07:09:11.971Z,9.39
2023-02-24T07:11:38.327Z,9.19
2023-02-24T07:14:04.844Z,10.25
2023-02-24T07:16:31.243Z,9.34
2023-02-24T07:18:57.729Z,8.88
2023-02-24T07:21:24.208Z,9.97
2023-02-24T07:23:52.504Z,12.89
2023-02-24T07:26:18.901Z,14.39
2023-02-24T07:28:45.329Z,12.71
2023-02-24T07:31:11.834Z,12.03
2023-02-24T07:33:38.340Z,12.55
2023-02-24T07:36:07.207Z,12.90
2023-02-24T07:38:33.614Z,11.94
2023-02-24T07:41:02.798Z,11.76
2023-02-24T07:43:30.465Z,10.96
2023-02-24T07:45:59.412Z,10.09
2023-02-24T07:48:25.854Z,12.45
2023-02-24T07:50:52.353Z,12.07
2023-02-24T07:53:18.794Z,11.39
2023-02-24T07:55:45.181Z,10.75
2023-02-24T07:58:11.504Z,14.00
2023-02-24T08:00:37.950Z,13.20
2023-02-24T08:03:04.356Z,11.60
2023-02-24T08:05:30.899Z,10.47
2023-02-24T08:07:57.262Z,10.15
2023-02-24T08:10:23.855Z,9.83
2023-02-24T08:12:50.391Z,12.92
2023-02-24T08:15:16.892Z,15.58
2023-02-24T08:17:43.323Z,12.50
2023-02-24T08:20:12.564Z,11.97
2023-02-24T08:22:39.078Z,13.04
2023-02-24T08:25:05.592Z,13.98
2023-02-24T08:27:32.020Z,14.99
2023-02-24T08:29:58.483Z,17.48
2023-02-24T08:32:24.942Z,16.89
2023-02-24T08:34:51.530Z,17.80
2023-02-24T08:37:17.915Z,16.81
2023-02-24T08:39:44.259Z,15.97
2023-02-24T08:42:12.724Z,17.50
2023-02-24T08:44:41.112Z,16.90
2023-02-24T08:47:11.639Z,16.83
2023-02-24T08:49:38.074Z,18.19
2023-02-24T08:52:04.559Z,18.93
2023-02-24T08:54:30.972Z,20.46
2023-02-24T08:56:57.419Z,21.06
2023-02-24T08:59:23.949Z,21.17
2023-02-24T09:01:59.540Z,21.28
2023-02-24T09:04:32.592Z,19.95
2023-02-24T09:07:10.798Z,20.46
2023-02-24T09:09:37.554Z,20.10
2023-02-24T09:12:04.053Z,19.93
2023-02-24T09:14:30.501Z,20.43
2023-02-24T09:16:56.934Z,20.19
2023-02-24T09:19:23.350Z,19.73
2023-02-24T09:21:51.867Z,19.58
2023-02-24T09:24:18.286Z,18.76
2023-02-24T09:26:44.726Z,18.83
2023-02-24T09:29:11.285Z,19.46
2023-02-24T09:31:38.100Z,19.10
2023-02-24T09:34:04.598Z,18.89
2023-02-24T09:36:31.116Z,18.62
2023-02-24T09:38:57.605Z,18.64
2023-02-24T09:41:24.060Z,17.60
2023-02-24T09:43:54.052Z,21.16
2023-02-24T09:46:20.538Z,20.76
2023-02-24T09:48:47.125Z,19.54
2023-02-24T09:51:13.645Z,19.17
2023-02-24T09:53:41.650Z,19.24
2023-02-24T09:56:09.257Z,18.94
2023-02-24T09:58:43.763Z,19.28
2023-02-24T10:01:10.717Z,18.85
2023-02-24T10:03:39.620Z,19.08
2023-02-24T10:06:06.033Z,18.05
2023-02-24T10:08:33.965Z,18.52
2023-02-24T10:11:00.436Z,19.02
2023-02-24T10:13:26.977Z,18.30
2023-02-24T10:16:06.129Z,19.04
2023-02-24T10:18:32.899Z,18.35
2023-02-24T10:20:59.434Z,18.46
2023-02-24T10:23:25.878Z,18.29
2023-02-24T10:25:52.328Z,18.51
2023-02-24T10:28:18.733Z,19.17
2023-02-24T10:30:46.550Z,18.17
2023-02-24T10:33:13.081Z,18.44
2023-02-24T10:35:39.469Z,18.94
2023-02-24T10:38:05.993Z,19.31
2023-02-24T10:40:32.517Z,18.76
2023-02-24T10:42:58.985Z,19.45
2023-02-24T10:45:25.578Z,19.36
2023-02-24T10:47:52.075Z,20.24
2023-02-24T10:50:18.582Z,19.45
2023-02-24T10:52:45.021Z,20.13
2023-02-24T10:55:11.400Z,20.00
2023-02-24T10:57:44.723Z,20.23
2023-02-24T11:00:16.746Z,21.24
2023-02-24T11:02:43.255Z,21.55
2023-02-24T11:05:09.718Z,21.45
2023-02-24T11:07:36.091Z,22.37
2023-02-24T11:10:02.531Z,23.12
2023-02-24T11:12:29.154Z,23.19
2023-02-24T11:14:55.548Z,23.18
2023-02-24T11:17:22.008Z,22.70
2023-02-24T11:19:48.557Z,23.12
2023-02-24T11:22:17.025Z,23.30
2023-02-24T11:24:43.449Z,22.95
2023-02-24T11:27:09.876Z,21.67
2023-02-24T11:29:36.461Z,21.86
2023-02-24T11:32:03.002Z,22.95
2023-02-24T11:34:29.510Z,22.06
2023-02-24T11:36:55.880Z,21.57
2023-02-24T11:39:22.366Z,21.30
2023-02-24T11:41:48.842Z,22.35
2023-02-24T11:44:15.758Z,20.98
2023-02-24T11:46:44.477Z,20.52
2023-02-24T11:49:10.899Z,21.16
2023-02-24T11:51:37.263Z,21.35
2023-02-24T11:54:03.632Z,21.61
2023-02-24T11:56:30.060Z,21.41
2023-02-24T11:58:56.478Z,21.50
2023-02-24T12:01:23.779Z,21.51
2023-02-24T12:03:50.595Z,20.67
2023-02-24T12:06:17.149Z,21.80
2023-02-24T12:08:43.712Z,22.60
2023-02-24T12:11:10.096Z,21.72
2023-02-24T12:13:38.822Z,20.74
2023-02-24T12:16:06.363Z,21.21
2023-02-24T12:18:32.806Z,21.16
2023-02-24T12:20:59.400Z,20.97
2023-02-24T12:23:25.871Z,21.28
2023-02-24T12:25:52.388Z,20.31
2023-02-24T12:28:18.798Z,20.09
2023-02-24T12:30:45.281Z,19.47
2023-02-24T12:33:11.683Z,19.45
2023-02-24T12:35:38.190Z,20.19
2023-02-24T12:38:04.583Z,20.43
2023-02-24T12:40:31.050Z,21.12
2023-02-24T12:42:57.495Z,21.16
2023-02-24T12:45:23.880Z,20.56
2023-02-24T12:47:50.294Z,20.82
2023-02-24T12:50:16.679Z,20.70
2023-02-24T12:52:43.147Z,20.93
2023-02-24T12:55:09.563Z,20.30
2023-02-24T12:57:36.121Z,20.34
2023-02-24T13:00:02.592Z,21.35
2023-02-24T13:02:29.140Z,20.87
2023-02-24T13:04:55.595Z,20.99
2023-02-24T13:07:21.961Z,20.67
2023-02-24T13:09:48.318Z,20.03
2023-02-24T13:12:14.784Z,19.93
2023-02-24T13:14:41.346Z,19.93
2023-02-24T13:17:07.930Z,19.98
2023-02-24T13:19:34.364Z,20.27
2023-02-24T13:22:00.802Z,21.65
2023-02-24T13:24:27.270Z,21.71
2023-02-24T13:26:53.765Z,21.75
2023-02-24T13:29:21.343Z,20.02
2023-02-24T13:31:48.044Z,18.82
2023-02-24T13:34:14.518Z,17.82
2023-02-24T13:36:40.983Z,19.79
2023-02-24T13:39:10.191Z,20.67
2023-02-24T13:41:36.598Z,21.14
2023-02-24T13:44:03.060Z,21.87
2023-02-24T13:46:31.743Z,22.69
2023-02-24T13:48:58.232Z,21.13
2023-02-24T13:51:24.884Z,19.23
2023-02-24T13:53:51.397Z,19.21
2023-02-24T13:56:17.773Z,17.73
2023-02-24T13:58:44.172Z,17.79
2023-02-24T14:01:10.860Z,17.81
2023-02-24T14:03:37.263Z,17.16
2023-02-24T14:06:03.649Z,17.82
2023-02-24T14:08:30.098Z,17.13
2023-02-24T14:10:57.677Z,18.33
2023-02-24T14:13:24.122Z,17.97
2023-02-24T14:15:50.603Z,17.57
2023-02-24T14:18:17.121Z,18.00
2023-02-24T14:20:44.591Z,18.12
2023-02-24T14:23:10.985Z,18.17
2023-02-24T14:25:37.706Z,18.48
2023-02-24T14:28:04.144Z,18.94
2023-02-24T14:30:30.649Z,18.41
2023-02-24T14:32:57.215Z,17.40
2023-02-24T14:35:23.622Z,17.63
2023-02-24T14:37:50.072Z,17.62
2023-02-24T14:40:16.530Z,17.99
2023-02-24T14:42:42.992Z,17.95
2023-02-24T14:45:09.434Z,17.55
2023-02-24T14:47:35.935Z,17.04
2023-02-24T14:50:02.535Z,17.26
2023-02-24T14:52:29.049Z,16.83
2023-02-24T14:54:55.599Z,16.69
2023-02-24T14:57:22.190Z,16.75
2023-02-24T14:59:48.559Z,15.98
2023-02-24T15:02:15.009Z,15.52
2023-02-24T15:04:41.477Z,16.19
2023-02-24T15:07:07.982Z,15.95
2023-02-24T15:09:34.419Z,16.17
2023-02-24T15:12:00.893Z,17.16
2023-02-24T15:14:27.374Z,16.74
2023-02-24T15:16:53.773Z,16.82
2023-02-24T15:19:20.236Z,16.30
2023-02-24T15:21:46.808Z,16.20
2023-02-24T15:24:13.332Z,16.16
2023-02-24T15:26:39.732Z,16.21
2023-02-24T15:29:07.493Z,15.76
2023-02-24T15:31:33.987Z,14.47
2023-02-24T15:34:00.528Z,13.57
2023-02-24T15:36:26.988Z,13.27
2023-02-24T15:38:53.333Z,11.60
2023-02-24T15:41:19.812Z,12.94
2023-02-24T15:43:46.344Z,11.84
2023-02-24T15:46:12.761Z,11.71
2023-02-24T15:48:40.877Z,12.23
2023-02-24T15:51:07.277Z,12.11
2023-02-24T15:53:33.707Z,14.29
2023-02-24T15:56:00.138Z,15.69
2023-02-24T15:58:26.568Z,15.55
2023-02-24T16:00:53.004Z,15.17
2023-02-24T16:03:19.442Z,14.74
2023-02-24T16:05:45.873Z,14.69
2023-02-24T16:08:12.371Z,14.74
2023-02-24T16:10:38.767Z,13.75
2023-02-24T16:13:05.288Z,14.07
2023-02-24T16:15:31.722Z,13.82
2023-02-24T16:17:58.163Z,13.93
2023-02-24T16:20:24.572Z,13.57
2023-02-24T16:22:51.002Z,13.57
2023-02-24T16:25:17.355Z,13.31
2023-02-24T16:27:43.754Z,12.52
2023-02-24T16:30:10.227Z,12.24
2023-02-24T16:32:36.755Z,12.16
2023-02-24T16:35:03.283Z,11.08
2023-02-24T16:37:31.907Z,11.65
2023-02-24T16:39:58.355Z,11.42
2023-02-24T16:42:24.827Z,11.80
2023-02-24T16:44:51.290Z,11.43
2023-02-24T16:47:17.707Z,11.52
2023-02-24T16:49:44.100Z,11.46
2023-02-24T16:52:10.514Z,10.88
2023-02-24T16:54:36.910Z,10.54
2023-02-24T16:57:03.354Z,11.05
2023-02-24T16:59:29.884Z,11.28
2023-02-24T17:01:56.317Z,10.66
2023-02-24T17:04:22.852Z,10.84
2023-02-24T17:06:50.548Z,9.60
2023-02-24T17:09:16.950Z,8.69
2023-02-24T17:11:43.435Z,9.46
2023-02-24T17:14:09.999Z,9.98
2023-02-24T17:16:36.505Z,10.92
2023-02-24T17:19:02.984Z,12.20
2023-02-24T17:21:29.361Z,12.16
2023-02-24T17:23:55.826Z,12.73
2023-02-24T17:26:23.861Z,12.78
2023-02-24T17:28:54.543Z,12.74
2023-02-24T17:31:21.052Z,12.81
2023-02-24T17:33:51.911Z,13.24
2023-02-24T17:36:21.082Z,13.92
2023-02-24T17:38:47.912Z,13.03
2023-02-24T17:41:14.289Z,13.58
2023-02-24T17:43:40.742Z,13.84
2023-02-24T17:46:07.594Z,13.44
2023-02-24T17:48:34.369Z,13.54
2023-02-24T17:51:00.827Z,14.04
2023-02-24T17:53:27.348Z,13.56
2023-02-24T17:56:02.207Z,16.08
2023-02-24T17:58:29.211Z,17.87
2023-02-24T18:00:55.673Z,13.80
2023-02-24T18:03:25.227Z,15.76
2023-02-24T18:05:51.789Z,14.24
2023-02-24T18:08:20.374Z,13.91
2023-02-24T18:10:46.702Z,12.63
2023-02-24T18:13:13.089Z,12.06
2023-02-24T18:15:39.514Z,12.59
2023-02-24T18:18:06.070Z,12.54
2023-02-24T18:20:32.538Z,12.16
2023-02-24T18:22:59.826Z,12.81
2023-02-24T18:25:26.302Z,11.77
2023-02-24T18:27:53.035Z,10.33
2023-02-24T18:30:19.470Z,11.05
2023-02-24T18:32:46.159Z,11.25
2023-02-24T18:35:12.829Z,11.49
2023-02-24T18:37:39.384Z,12.70
2023-02-24T18:40:05.826Z,12.36
2023-02-24T18:42:32.284Z,12.94
2023-02-24T18:44:58.968Z,13.55
2023-02-24T18:47:25.478Z,13.77
2023-02-24T18:49:55.032Z,13.41
2023-02-24T18:52:21.551Z,13.42
2023-02-24T18:54:48.003Z,13.72
2023-02-24T18:57:14.425Z,22.76
2023-02-24T18:59:40.878Z,35.92
2023-02-24T19:02:07.423Z,18.65
2023-02-24T19:04:33.945Z,15.37
2023-02-24T19:07:01.714Z,13.98
2023-02-24T19:09:28.278Z,14.01
2023-02-24T19:11:54.655Z,13.59
2023-02-24T19:14:21.051Z,13.39
2023-02-24T19:16:47.490Z,13.32
2023-02-24T19:19:14.019Z,13.74
2023-02-24T19:21:40.563Z,13.35
2023-02-24T19:24:07.070Z,13.32
2023-02-24T19:26:33.551Z,12.97
2023-02-24T19:29:00.035Z,13.15
2023-02-24T19:31:26.656Z,13.20
2023-02-24T19:33:56.737Z,13.88
2023-02-24T19:36:23.496Z,14.09
2023-02-24T19:38:51.587Z,14.08
2023-02-24T19:41:17.981Z,13.50
2023-02-24T19:43:48.893Z,15.22
2023-02-24T19:46:15.482Z,13.82
2023-02-24T19:48:42.105Z,15.07
2023-02-24T19:51:08.672Z,15.40
2023-02-24T19:53:35.208Z,15.19
2023-02-24T19:56:01.699Z,15.15
2023-02-24T20:01:21.863Z,14.69
2023-02-24T20:03:48.401Z,15.01
2023-02-24T20:06:15.103Z,14.29
2023-02-24T20:08:41.645Z,14.54
2023-02-24T20:13:37.416Z,12.30
2023-02-24T20:16:04.271Z,13.18
2023-02-24T20:18:30.677Z,13.58
2023-02-24T20:20:57.071Z,13.63
2023-02-24T20:23:23.489Z,12.59
2023-02-24T20:25:50.796Z,12.61
2023-02-24T20:28:18.574Z,11.96
2023-02-24T20:30:45.090Z,11.93
2023-02-24T20:35:55.508Z,12.02
2023-02-24T20:38:21.962Z,13.65
2023-02-24T20:40:48.387Z,12.41
2023-02-24T20:43:14.874Z,11.78
2023-02-24T20:45:41.312Z,12.19
2023-02-24T20:48:07.737Z,12.18
2023-02-24T20:50:34.240Z,11.41
2023-02-24T20:53:01.942Z,11.62
2023-02-24T20:55:28.367Z,11.08
2023-02-24T20:57:54.762Z,10.98
2023-02-24T21:00:21.513Z,10.08
2023-02-24T21:02:47.955Z,9.67
2023-02-24T21:05:14.474Z,9.61
2023-02-24T21:07:41.079Z,8.57
2023-02-24T21:10:07.611Z,8.65
2023-02-24T21:12:34.096Z,8.83
2023-02-24T21:15:02.475Z,8.69
2023-02-24T21:17:30.609Z,7.92
2023-02-24T21:19:58.398Z,7.50
2023-02-24T21:22:27.670Z,7.30
2023-02-24T21:24:54.147Z,7.33
2023-02-24T21:27:20.549Z,6.82
2023-02-24T21:29:46.973Z,6.57
2023-02-24T21:32:16.163Z,6.42
2023-02-24T21:34:42.743Z,6.53
2023-02-24T21:37:09.393Z,5.71
2023-02-24T21:39:35.867Z,5.67
2023-02-24T21:42:02.278Z,5.32
2023-02-24T21:44:29.872Z,5.54
2023-02-24T21:46:56.331Z,4.59
2023-02-24T21:49:22.953Z,4.29
2023-02-24T21:51:49.411Z,3.94
2023-02-24T21:54:15.814Z,3.48
2023-02-24T21:56:42.737Z,3.54
2023-02-24T21:59:09.228Z,3.54
2023-02-24T22:01:35.813Z,3.77
2023-02-24T22:04:02.268Z,3.83
2023-02-24T22:06:31.496Z,3.57
2023-02-24T22:08:58.257Z,3.46
2023-02-24T22:11:26.023Z,3.23
2023-02-24T22:13:52.480Z,2.98
2023-02-24T22:16:18.979Z,3.11
2023-02-24T22:18:45.472Z,2.82
2023-02-24T22:21:11.983Z,2.69
2023-02-24T22:23:39.927Z,2.73
2023-02-24T22:26:06.418Z,2.43
2023-02-24T22:28:32.845Z,2.65
2023-02-24T22:30:59.504Z,2.50
2023-02-24T22:33:25.982Z,2.52
2023-02-24T22:35:52.431Z,2.49
2023-02-24T22:38:18.887Z,2.37
2023-02-24T22:40:45.341Z,2.37
2023-02-24T22:43:11.816Z,2.14
2023-02-24T22:45:38.232Z,2.13
2023-02-24T22:48:04.676Z,2.06
2023-02-24T22:50:31.245Z,1.98
2023-02-24T22:52:57.688Z,2.05
2023-02-24T22:55:24.063Z,2.20
2023-02-24T22:57:50.442Z,2.16
2023-02-24T23:00:16.887Z,2.01
2023-02-24T23:02:43.237Z,2.01
2023-02-24T23:05:09.682Z,1.81
2023-02-24T23:07:36.097Z,1.82
2023-02-24T23:10:02.496Z,2.19
2023-02-24T23:12:28.843Z,2.17
2023-02-24T23:14:55.230Z,2.15
2023-02-24T23:17:21.653Z,1.90
2023-02-24T23:19:48.211Z,2.16
2023-02-24T23:22:14.586Z,2.29
2023-02-24T23:24:42.039Z,3.59
2023-02-24T23:27:09.713Z,2.35
2023-02-24T23:29:36.161Z,2.46
2023-02-24T23:32:02.675Z,2.42
2023-02-24T23:34:29.136Z,2.23
2023-02-24T23:36:55.663Z,2.14
2023-02-24T23:39:22.064Z,2.10
2023-02-24T23:41:48.496Z,1.60
2023-02-24T23:44:14.878Z,1.49
2023-02-24T23:46:41.230Z,1.19
2023-02-24T23:49:07.643Z,1.52
2023-02-24T23:51:49.347Z,1.30
2023-02-24T23:54:15.749Z,1.16
2023-02-24T23:56:42.093Z,1.24
2023-02-24T23:59:08.514Z,1.01
